sensor_id;sensor_type;location;lat;lon;timestamp;P1;durP1;ratioP1;P2;durP2;ratioP2
7076;SDS011;3579;48.956;9.154;2023-06-14T00:02:09;2.30;;;2.10;;
7076;SDS011;3579;48.956;9.154;2023-06-14T00:04:35;2.20;;;2.00;;
7076;SDS011;3579;48.956;9.154;2023-06-14T00:07:03;2.27;;;2.07;;
7076;SDS011;3579;48.956;9.154;2023-06-14T00:09:29;2.10;;;1.90;;
7076;SDS011;3579;48.956;9.154;2023-06-14T00:11:55;2.40;;;2.20;;
7076;SDS011;3579;48.956;9.154;2023-06-14T00:14:21;2.00;;;1.90;;
7076;SDS011;3579;48.956;9.154;2023-06-14T00:16:47;1.90;;;1.80;;
7076;SDS011;3579;48.956;9.154;2023-06-14T00:19:13;2.27;;;2.07;;
7076;SDS011;3579;48.956;9.154;2023-06-14T00:21:39;2.60;;;2.07;;
7076;SDS011;3579;48.956;9.154;2023-06-14T00:24:07;2.17;;;2.00;;
7076;SDS011;3579;48.956;9.154;2023-06-14T00:26:33;2.20;;;2.00;;
7076;SDS011;3579;48.956;9.154;2023-06-14T00:28:59;2.10;;;1.90;;
7076;SDS011;3579;48.956;9.154;2023-06-14T00:31:25;2.17;;;1.97;;
7076;SDS011;3579;48.956;9.154;2023-06-14T00:33:51;2.00;;;1.90;;
7076;SDS011;3579;48.956;9.154;2023-06-14T00:36:17;2.10;;;2.00;;
7076;SDS011;3579;48.956;9.154;2023-06-14T00:38:43;2.00;;;1.90;;
7076;SDS011;3579;48.956;9.154;2023-06-14T00:41:09;2.50;;;2.30;;
7076;SDS011;3579;48.956;9.154;2023-06-14T00:43:35;2.73;;;2.00;;
7076;SDS011;3579;48.956;9.154;2023-06-14T00:46:01;2.23;;;2.00;;
7076;SDS011;3579;48.956;9.154;2023-06-14T00:48:27;2.13;;;1.93;;
7076;SDS011;3579;48.956;9.154;2023-06-14T00:50:54;2.27;;;2.07;;
7076;SDS011;3579;48.956;9.154;2023-06-14T00:53:20;2.13;;;1.93;;
7076;SDS011;3579;48.956;9.154;2023-06-14T00:55:48;2.00;;;1.80;;
7076;SDS011;3579;48.956;9.154;2023-06-14T00:58:14;1.90;;;1.80;;
7076;SDS011;3579;48.956;9.154;2023-06-14T01:00:41;2.07;;;1.90;;
7076;SDS011;3579;48.956;9.154;2023-06-14T01:03:07;2.17;;;1.97;;
7076;SDS011;3579;48.956;9.154;2023-06-14T01:05:37;2.03;;;1.87;;
7076;SDS011;3579;48.956;9.154;2023-06-14T01:13:25;2.30;;;1.90;;
7076;SDS011;3579;48.956;9.154;2023-06-14T01:15:57;1.90;;;1.80;;
7076;SDS011;3579;48.956;9.154;2023-06-14T01:18:23;1.90;;;1.80;;
7076;SDS011;3579;48.956;9.154;2023-06-14T01:20:49;1.87;;;1.77;;
7076;SDS011;3579;48.956;9.154;2023-06-14T01:23:16;2.10;;;1.90;;
7076;SDS011;3579;48.956;9.154;2023-06-14T01:25:43;2.20;;;2.00;;
7076;SDS011;3579;48.956;9.154;2023-06-14T01:28:10;2.10;;;1.90;;
7076;SDS011;3579;48.956;9.154;2023-06-14T01:30:39;2.00;;;1.87;;
7076;SDS011;3579;48.956;9.154;2023-06-14T01:33:13;1.97;;;1.77;;
7076;SDS011;3579;48.956;9.154;2023-06-14T01:35:45;2.10;;;1.90;;
7076;SDS011;3579;48.956;9.154;2023-06-14T01:38:12;1.90;;;1.80;;
7076;SDS011;3579;48.956;9.154;2023-06-14T01:40:40;1.90;;;1.80;;
7076;SDS011;3579;48.956;9.154;2023-06-14T01:43:08;1.90;;;1.80;;
7076;SDS011;3579;48.956;9.154;2023-06-14T01:45:35;2.13;;;1.93;;
7076;SDS011;3579;48.956;9.154;2023-06-14T01:48:03;2.17;;;1.80;;
7076;SDS011;3579;48.956;9.154;2023-06-14T01:50:30;1.93;;;1.83;;
7076;SDS011;3579;48.956;9.154;2023-06-14T01:52:56;1.87;;;1.77;;
7076;SDS011;3579;48.956;9.154;2023-06-14T01:55:23;1.60;;;1.50;;
7076;SDS011;3579;48.956;9.154;2023-06-14T01:57:50;1.90;;;1.73;;
7076;SDS011;3579;48.956;9.154;2023-06-14T02:00:17;2.00;;;1.80;;
7076;SDS011;3579;48.956;9.154;2023-06-14T02:02:44;2.00;;;1.60;;
7076;SDS011;3579;48.956;9.154;2023-06-14T02:05:11;2.20;;;2.00;;
7076;SDS011;3579;48.956;9.154;2023-06-14T02:07:37;2.10;;;1.90;;
7076;SDS011;3579;48.956;9.154;2023-06-14T02:10:03;1.87;;;1.77;;
7076;SDS011;3579;48.956;9.154;2023-06-14T02:12:30;1.83;;;1.73;;
7076;SDS011;3579;48.956;9.154;2023-06-14T02:14:56;1.93;;;1.73;;
7076;SDS011;3579;48.956;9.154;2023-06-14T02:17:23;1.90;;;1.80;;
7076;SDS011;3579;48.956;9.154;2023-06-14T02:19:50;2.20;;;2.00;;
7076;SDS011;3579;48.956;9.154;2023-06-14T02:22:16;1.90;;;1.70;;
7076;SDS011;3579;48.956;9.154;2023-06-14T02:24:43;2.00;;;1.80;;
7076;SDS011;3579;48.956;9.154;2023-06-14T02:27:09;1.90;;;1.80;;
7076;SDS011;3579;48.956;9.154;2023-06-14T02:29:38;2.30;;;2.00;;
7076;SDS011;3579;48.956;9.154;2023-06-14T02:32:04;2.10;;;1.90;;
7076;SDS011;3579;48.956;9.154;2023-06-14T02:34:33;1.97;;;1.80;;
7076;SDS011;3579;48.956;9.154;2023-06-14T02:37:00;1.73;;;1.63;;
7076;SDS011;3579;48.956;9.154;2023-06-14T02:39:28;2.10;;;1.90;;
7076;SDS011;3579;48.956;9.154;2023-06-14T02:41:54;2.07;;;1.87;;
7076;SDS011;3579;48.956;9.154;2023-06-14T02:44:24;2.57;;;1.70;;
7076;SDS011;3579;48.956;9.154;2023-06-14T02:46:53;2.10;;;1.90;;
7076;SDS011;3579;48.956;9.154;2023-06-14T02:49:21;1.90;;;1.80;;
7076;SDS011;3579;48.956;9.154;2023-06-14T02:51:47;2.10;;;1.90;;
7076;SDS011;3579;48.956;9.154;2023-06-14T02:54:13;1.80;;;1.70;;
7076;SDS011;3579;48.956;9.154;2023-06-14T02:56:40;1.80;;;1.70;;
7076;SDS011;3579;48.956;9.154;2023-06-14T02:59:06;2.33;;;1.80;;
7076;SDS011;3579;48.956;9.154;2023-06-14T03:01:34;2.07;;;1.87;;
7076;SDS011;3579;48.956;9.154;2023-06-14T03:04:01;2.03;;;1.83;;
7076;SDS011;3579;48.956;9.154;2023-06-14T03:06:29;1.60;;;1.50;;
7076;SDS011;3579;48.956;9.154;2023-06-14T03:08:56;1.90;;;1.80;;
7076;SDS011;3579;48.956;9.154;2023-06-14T03:11:30;1.60;;;1.50;;
7076;SDS011;3579;48.956;9.154;2023-06-14T03:13:57;1.87;;;1.77;;
7076;SDS011;3579;48.956;9.154;2023-06-14T03:16:23;2.30;;;2.10;;
7076;SDS011;3579;48.956;9.154;2023-06-14T03:18:52;1.70;;;1.60;;
7076;SDS011;3579;48.956;9.154;2023-06-14T03:21:19;1.80;;;1.70;;
7076;SDS011;3579;48.956;9.154;2023-06-14T03:23:46;1.80;;;1.70;;
7076;SDS011;3579;48.956;9.154;2023-06-14T03:26:12;1.70;;;1.60;;
7076;SDS011;3579;48.956;9.154;2023-06-14T03:28:39;1.70;;;1.60;;
7076;SDS011;3579;48.956;9.154;2023-06-14T03:31:06;1.80;;;1.70;;
7076;SDS011;3579;48.956;9.154;2023-06-14T03:33:34;1.67;;;1.57;;
7076;SDS011;3579;48.956;9.154;2023-06-14T03:36:01;1.80;;;1.70;;
7076;SDS011;3579;48.956;9.154;2023-06-14T03:38:28;1.50;;;1.40;;
7076;SDS011;3579;48.956;9.154;2023-06-14T03:40:54;1.67;;;1.57;;
7076;SDS011;3579;48.956;9.154;2023-06-14T03:43:20;1.77;;;1.67;;
7076;SDS011;3579;48.956;9.154;2023-06-14T03:45:46;1.60;;;1.50;;
7076;SDS011;3579;48.956;9.154;2023-06-14T03:48:12;1.90;;;1.80;;
7076;SDS011;3579;48.956;9.154;2023-06-14T03:50:38;2.00;;;1.70;;
7076;SDS011;3579;48.956;9.154;2023-06-14T03:53:05;1.73;;;1.60;;
7076;SDS011;3579;48.956;9.154;2023-06-14T03:55:31;1.70;;;1.60;;
7076;SDS011;3579;48.956;9.154;2023-06-14T03:57:58;1.80;;;1.70;;
7076;SDS011;3579;48.956;9.154;2023-06-14T04:00:24;1.57;;;1.47;;
7076;SDS011;3579;48.956;9.154;2023-06-14T04:02:51;1.63;;;1.53;;
7076;SDS011;3579;48.956;9.154;2023-06-14T04:05:17;1.70;;;1.60;;
7076;SDS011;3579;48.956;9.154;2023-06-14T04:07:47;1.80;;;1.70;;
7076;SDS011;3579;48.956;9.154;2023-06-14T04:10:14;1.73;;;1.63;;
7076;SDS011;3579;48.956;9.154;2023-06-14T04:12:41;1.50;;;1.40;;
7076;SDS011;3579;48.956;9.154;2023-06-14T04:15:08;1.60;;;1.50;;
7076;SDS011;3579;48.956;9.154;2023-06-14T04:17:35;1.80;;;1.70;;
7076;SDS011;3579;48.956;9.154;2023-06-14T04:20:02;1.80;;;1.70;;
7076;SDS011;3579;48.956;9.154;2023-06-14T04:22:31;1.60;;;1.50;;
7076;SDS011;3579;48.956;9.154;2023-06-14T04:24:58;1.63;;;1.53;;
7076;SDS011;3579;48.956;9.154;2023-06-14T04:27:25;1.70;;;1.60;;
7076;SDS011;3579;48.956;9.154;2023-06-14T04:29:53;1.70;;;1.60;;
7076;SDS011;3579;48.956;9.154;2023-06-14T04:32:23;2.07;;;1.77;;
7076;SDS011;3579;48.956;9.154;2023-06-14T04:34:51;1.57;;;1.47;;
7076;SDS011;3579;48.956;9.154;2023-06-14T04:37:23;1.50;;;1.40;;
7076;SDS011;3579;48.956;9.154;2023-06-14T04:39:49;1.70;;;1.60;;
7076;SDS011;3579;48.956;9.154;2023-06-14T04:42:15;1.60;;;1.50;;
7076;SDS011;3579;48.956;9.154;2023-06-14T04:44:42;1.70;;;1.60;;
7076;SDS011;3579;48.956;9.154;2023-06-14T04:47:09;1.60;;;1.50;;
7076;SDS011;3579;48.956;9.154;2023-06-14T04:49:38;1.67;;;1.57;;
7076;SDS011;3579;48.956;9.154;2023-06-14T04:52:05;1.70;;;1.60;;
7076;SDS011;3579;48.956;9.154;2023-06-14T04:54:32;1.60;;;1.50;;
7076;SDS011;3579;48.956;9.154;2023-06-14T04:56:59;1.70;;;1.60;;
7076;SDS011;3579;48.956;9.154;2023-06-14T04:59:25;1.67;;;1.57;;
7076;SDS011;3579;48.956;9.154;2023-06-14T05:01:51;1.60;;;1.50;;
7076;SDS011;3579;48.956;9.154;2023-06-14T05:04:18;1.93;;;1.80;;
7076;SDS011;3579;48.956;9.154;2023-06-14T05:06:45;1.70;;;1.60;;
7076;SDS011;3579;48.956;9.154;2023-06-14T05:09:14;1.70;;;1.60;;
7076;SDS011;3579;48.956;9.154;2023-06-14T05:11:43;1.60;;;1.50;;
7076;SDS011;3579;48.956;9.154;2023-06-14T05:14:12;1.70;;;1.60;;
7076;SDS011;3579;48.956;9.154;2023-06-14T05:16:39;1.67;;;1.57;;
7076;SDS011;3579;48.956;9.154;2023-06-14T05:19:06;2.10;;;1.57;;
7076;SDS011;3579;48.956;9.154;2023-06-14T05:21:32;1.70;;;1.60;;
7076;SDS011;3579;48.956;9.154;2023-06-14T05:24:01;1.70;;;1.60;;
7076;SDS011;3579;48.956;9.154;2023-06-14T05:26:27;3.13;;;1.60;;
7076;SDS011;3579;48.956;9.154;2023-06-14T05:28:57;1.77;;;1.67;;
7076;SDS011;3579;48.956;9.154;2023-06-14T05:31:24;1.87;;;1.63;;
7076;SDS011;3579;48.956;9.154;2023-06-14T05:33:51;1.70;;;1.60;;
7076;SDS011;3579;48.956;9.154;2023-06-14T05:36:18;1.70;;;1.60;;
7076;SDS011;3579;48.956;9.154;2023-06-14T05:38:45;1.63;;;1.53;;
7076;SDS011;3579;48.956;9.154;2023-06-14T05:41:11;1.80;;;1.70;;
7076;SDS011;3579;48.956;9.154;2023-06-14T05:43:37;1.80;;;1.70;;
7076;SDS011;3579;48.956;9.154;2023-06-14T05:46:03;1.53;;;1.43;;
7076;SDS011;3579;48.956;9.154;2023-06-14T05:48:32;1.77;;;1.67;;
7076;SDS011;3579;48.956;9.154;2023-06-14T05:50:59;1.83;;;1.73;;
7076;SDS011;3579;48.956;9.154;2023-06-14T05:53:25;1.70;;;1.50;;
7076;SDS011;3579;48.956;9.154;2023-06-14T05:55:51;1.73;;;1.63;;
7076;SDS011;3579;48.956;9.154;2023-06-14T05:58:19;1.67;;;1.57;;
7076;SDS011;3579;48.956;9.154;2023-06-14T06:00:45;1.70;;;1.60;;
7076;SDS011;3579;48.956;9.154;2023-06-14T06:03:11;1.73;;;1.63;;
7076;SDS011;3579;48.956;9.154;2023-06-14T06:05:38;1.67;;;1.57;;
7076;SDS011;3579;48.956;9.154;2023-06-14T06:08:05;2.00;;;1.80;;
7076;SDS011;3579;48.956;9.154;2023-06-14T06:10:31;1.80;;;1.70;;
7076;SDS011;3579;48.956;9.154;2023-06-14T06:12:57;2.20;;;2.00;;
7076;SDS011;3579;48.956;9.154;2023-06-14T06:15:23;2.20;;;2.00;;
7076;SDS011;3579;48.956;9.154;2023-06-14T06:17:49;1.60;;;1.50;;
7076;SDS011;3579;48.956;9.154;2023-06-14T06:20:16;2.00;;;1.80;;
7076;SDS011;3579;48.956;9.154;2023-06-14T06:22:43;2.03;;;1.83;;
7076;SDS011;3579;48.956;9.154;2023-06-14T06:25:09;2.03;;;1.73;;
7076;SDS011;3579;48.956;9.154;2023-06-14T06:27:36;1.93;;;1.77;;
7076;SDS011;3579;48.956;9.154;2023-06-14T06:30:06;1.97;;;1.83;;
7076;SDS011;3579;48.956;9.154;2023-06-14T06:32:32;2.00;;;1.80;;
7076;SDS011;3579;48.956;9.154;2023-06-14T06:34:58;2.07;;;1.87;;
7076;SDS011;3579;48.956;9.154;2023-06-14T06:37:25;1.90;;;1.80;;
7076;SDS011;3579;48.956;9.154;2023-06-14T06:39:51;1.90;;;1.70;;
7076;SDS011;3579;48.956;9.154;2023-06-14T06:42:17;2.10;;;1.90;;
7076;SDS011;3579;48.956;9.154;2023-06-14T06:44:43;2.13;;;1.90;;
7076;SDS011;3579;48.956;9.154;2023-06-14T06:47:09;2.00;;;1.80;;
7076;SDS011;3579;48.956;9.154;2023-06-14T06:49:36;2.10;;;1.90;;
7076;SDS011;3579;48.956;9.154;2023-06-14T06:52:06;2.20;;;2.00;;
7076;SDS011;3579;48.956;9.154;2023-06-14T06:54:32;2.10;;;1.90;;
7076;SDS011;3579;48.956;9.154;2023-06-14T06:56:59;1.97;;;1.87;;
7076;SDS011;3579;48.956;9.154;2023-06-14T06:59:27;2.10;;;1.90;;
7076;SDS011;3579;48.956;9.154;2023-06-14T07:01:53;2.10;;;1.90;;
7076;SDS011;3579;48.956;9.154;2023-06-14T07:04:19;2.97;;;1.97;;
7076;SDS011;3579;48.956;9.154;2023-06-14T07:06:46;2.23;;;1.90;;
7076;SDS011;3579;48.956;9.154;2023-06-14T07:09:13;2.30;;;2.10;;
7076;SDS011;3579;48.956;9.154;2023-06-14T07:11:40;2.43;;;2.03;;
7076;SDS011;3579;48.956;9.154;2023-06-14T07:14:08;2.20;;;2.00;;
7076;SDS011;3579;48.956;9.154;2023-06-14T07:16:34;2.20;;;1.90;;
7076;SDS011;3579;48.956;9.154;2023-06-14T07:19:01;1.97;;;1.80;;
7076;SDS011;3579;48.956;9.154;2023-06-14T07:21:28;2.10;;;1.90;;
7076;SDS011;3579;48.956;9.154;2023-06-14T07:23:55;2.43;;;2.03;;
7076;SDS011;3579;48.956;9.154;2023-06-14T07:26:21;1.97;;;1.87;;
7076;SDS011;3579;48.956;9.154;2023-06-14T07:28:49;2.10;;;1.90;;
7076;SDS011;3579;48.956;9.154;2023-06-14T07:31:15;2.83;;;2.00;;
7076;SDS011;3579;48.956;9.154;2023-06-14T07:33:42;2.00;;;1.90;;
7076;SDS011;3579;48.956;9.154;2023-06-14T07:36:08;2.93;;;1.83;;
7076;SDS011;3579;48.956;9.154;2023-06-14T07:38:34;2.40;;;2.07;;
7076;SDS011;3579;48.956;9.154;2023-06-14T07:41:00;2.33;;;2.13;;
7076;SDS011;3579;48.956;9.154;2023-06-14T07:43:26;2.37;;;2.17;;
7076;SDS011;3579;48.956;9.154;2023-06-14T07:45:53;2.27;;;2.03;;
7076;SDS011;3579;48.956;9.154;2023-06-14T07:48:19;2.30;;;2.10;;
7076;SDS011;3579;48.956;9.154;2023-06-14T07:50:45;2.20;;;2.00;;
7076;SDS011;3579;48.956;9.154;2023-06-14T07:53:11;2.33;;;2.00;;
7076;SDS011;3579;48.956;9.154;2023-06-14T07:55:37;2.30;;;2.10;;
7076;SDS011;3579;48.956;9.154;2023-06-14T07:58:04;2.30;;;2.10;;
7076;SDS011;3579;48.956;9.154;2023-06-14T08:00:34;2.80;;;2.23;;
7076;SDS011;3579;48.956;9.154;2023-06-14T08:03:00;2.07;;;1.97;;
7076;SDS011;3579;48.956;9.154;2023-06-14T08:05:26;2.93;;;2.00;;
7076;SDS011;3579;48.956;9.154;2023-06-14T08:07:53;2.37;;;2.13;;
7076;SDS011;3579;48.956;9.154;2023-06-14T08:10:20;2.17;;;1.97;;
7076;SDS011;3579;48.956;9.154;2023-06-14T08:12:47;2.37;;;2.17;;
7076;SDS011;3579;48.956;9.154;2023-06-14T08:15:15;2.30;;;2.10;;
7076;SDS011;3579;48.956;9.154;2023-06-14T08:17:42;2.30;;;2.10;;
7076;SDS011;3579;48.956;9.154;2023-06-14T08:20:09;3.27;;;2.27;;
7076;SDS011;3579;48.956;9.154;2023-06-14T08:22:36;2.40;;;2.10;;
7076;SDS011;3579;48.956;9.154;2023-06-14T08:25:02;2.50;;;2.30;;
7076;SDS011;3579;48.956;9.154;2023-06-14T08:27:29;2.43;;;2.23;;
7076;SDS011;3579;48.956;9.154;2023-06-14T08:29:56;3.77;;;2.43;;
7076;SDS011;3579;48.956;9.154;2023-06-14T08:32:22;2.57;;;2.20;;
7076;SDS011;3579;48.956;9.154;2023-06-14T08:34:48;2.63;;;2.43;;
7076;SDS011;3579;48.956;9.154;2023-06-14T08:37:14;2.90;;;2.43;;
7076;SDS011;3579;48.956;9.154;2023-06-14T08:39:40;2.37;;;2.10;;
7076;SDS011;3579;48.956;9.154;2023-06-14T08:42:07;2.50;;;2.30;;
7076;SDS011;3579;48.956;9.154;2023-06-14T08:44:35;2.40;;;2.20;;
7076;SDS011;3579;48.956;9.154;2023-06-14T08:47:02;2.50;;;2.30;;
7076;SDS011;3579;48.956;9.154;2023-06-14T08:49:31;2.33;;;2.13;;
7076;SDS011;3579;48.956;9.154;2023-06-14T08:51:59;2.23;;;2.00;;
7076;SDS011;3579;48.956;9.154;2023-06-14T08:54:27;2.33;;;2.13;;
7076;SDS011;3579;48.956;9.154;2023-06-14T08:56:56;2.33;;;2.13;;
7076;SDS011;3579;48.956;9.154;2023-06-14T08:59:26;2.50;;;2.30;;
7076;SDS011;3579;48.956;9.154;2023-06-14T09:01:52;3.07;;;2.60;;
7076;SDS011;3579;48.956;9.154;2023-06-14T09:04:22;3.10;;;2.20;;
7076;SDS011;3579;48.956;9.154;2023-06-14T09:06:55;2.80;;;2.50;;
7076;SDS011;3579;48.956;9.154;2023-06-14T09:09:21;3.13;;;2.70;;
7076;SDS011;3579;48.956;9.154;2023-06-14T09:11:49;2.50;;;2.30;;
7076;SDS011;3579;48.956;9.154;2023-06-14T09:14:18;2.60;;;2.40;;
7076;SDS011;3579;48.956;9.154;2023-06-14T09:16:44;2.20;;;2.00;;
7076;SDS011;3579;48.956;9.154;2023-06-14T09:19:14;2.63;;;2.43;;
7076;SDS011;3579;48.956;9.154;2023-06-14T09:21:50;2.50;;;2.30;;
7076;SDS011;3579;48.956;9.154;2023-06-14T09:24:18;3.03;;;2.50;;
7076;SDS011;3579;48.956;9.154;2023-06-14T09:26:46;3.93;;;2.30;;
7076;SDS011;3579;48.956;9.154;2023-06-14T09:29:13;4.00;;;2.27;;
7076;SDS011;3579;48.956;9.154;2023-06-14T09:31:42;2.47;;;2.20;;
7076;SDS011;3579;48.956;9.154;2023-06-14T09:34:08;2.83;;;2.37;;
7076;SDS011;3579;48.956;9.154;2023-06-14T09:36:35;2.93;;;2.30;;
7076;SDS011;3579;48.956;9.154;2023-06-14T09:39:02;3.43;;;2.60;;
7076;SDS011;3579;48.956;9.154;2023-06-14T09:41:33;3.30;;;2.40;;
7076;SDS011;3579;48.956;9.154;2023-06-14T09:44:03;2.73;;;2.43;;
7076;SDS011;3579;48.956;9.154;2023-06-14T09:46:31;2.73;;;2.40;;
7076;SDS011;3579;48.956;9.154;2023-06-14T09:48:57;2.77;;;2.43;;
7076;SDS011;3579;48.956;9.154;2023-06-14T09:51:24;4.00;;;2.53;;
7076;SDS011;3579;48.956;9.154;2023-06-14T09:53:52;2.63;;;2.23;;
7076;SDS011;3579;48.956;9.154;2023-06-14T09:56:26;3.17;;;2.60;;
7076;SDS011;3579;48.956;9.154;2023-06-14T09:58:58;2.50;;;2.30;;
7076;SDS011;3579;48.956;9.154;2023-06-14T10:01:25;2.70;;;2.40;;
7076;SDS011;3579;48.956;9.154;2023-06-14T10:04:05;3.33;;;2.33;;
7076;SDS011;3579;48.956;9.154;2023-06-14T10:06:34;2.83;;;2.47;;
7076;SDS011;3579;48.956;9.154;2023-06-14T10:09:03;2.73;;;2.47;;
7076;SDS011;3579;48.956;9.154;2023-06-14T10:11:32;3.90;;;2.40;;
7076;SDS011;3579;48.956;9.154;2023-06-14T10:14:00;3.13;;;2.60;;
7076;SDS011;3579;48.956;9.154;2023-06-14T10:19:29;2.57;;;2.37;;
7076;SDS011;3579;48.956;9.154;2023-06-14T10:22:11;4.03;;;2.60;;
7076;SDS011;3579;48.956;9.154;2023-06-14T10:24:43;2.90;;;2.60;;
7076;SDS011;3579;48.956;9.154;2023-06-14T10:27:13;3.83;;;2.63;;
7076;SDS011;3579;48.956;9.154;2023-06-14T10:32:24;2.90;;;2.50;;
7076;SDS011;3579;48.956;9.154;2023-06-14T10:34:57;2.70;;;2.50;;
7076;SDS011;3579;48.956;9.154;2023-06-14T10:37:29;2.90;;;2.40;;
7076;SDS011;3579;48.956;9.154;2023-06-14T10:39:55;2.50;;;2.30;;
7076;SDS011;3579;48.956;9.154;2023-06-14T10:42:21;2.70;;;2.50;;
7076;SDS011;3579;48.956;9.154;2023-06-14T10:44:53;2.83;;;2.43;;
7076;SDS011;3579;48.956;9.154;2023-06-14T10:47:30;2.83;;;2.40;;
7076;SDS011;3579;48.956;9.154;2023-06-14T10:50:07;2.57;;;2.30;;
7076;SDS011;3579;48.956;9.154;2023-06-14T10:52:38;2.40;;;2.20;;
7076;SDS011;3579;48.956;9.154;2023-06-14T10:57:41;3.67;;;2.40;;
7076;SDS011;3579;48.956;9.154;2023-06-14T11:00:09;2.93;;;2.40;;
7076;SDS011;3579;48.956;9.154;2023-06-14T11:05:45;2.60;;;2.40;;
7076;SDS011;3579;48.956;9.154;2023-06-14T11:11:07;2.70;;;2.50;;
7076;SDS011;3579;48.956;9.154;2023-06-14T11:13:41;2.60;;;2.40;;
7076;SDS011;3579;48.956;9.154;2023-06-14T11:16:11;3.00;;;2.43;;
7076;SDS011;3579;48.956;9.154;2023-06-14T11:18:38;2.83;;;2.50;;
7076;SDS011;3579;48.956;9.154;2023-06-14T11:21:04;3.47;;;2.30;;
7076;SDS011;3579;48.956;9.154;2023-06-14T11:23:30;3.93;;;2.60;;
7076;SDS011;3579;48.956;9.154;2023-06-14T11:25:56;2.77;;;2.50;;
7076;SDS011;3579;48.956;9.154;2023-06-14T11:28:22;6.97;;;2.90;;
7076;SDS011;3579;48.956;9.154;2023-06-14T11:30:49;2.53;;;2.33;;
7076;SDS011;3579;48.956;9.154;2023-06-14T11:33:25;2.50;;;2.30;;
7076;SDS011;3579;48.956;9.154;2023-06-14T11:35:52;2.43;;;2.23;;
7076;SDS011;3579;48.956;9.154;2023-06-14T11:38:18;2.47;;;2.27;;
7076;SDS011;3579;48.956;9.154;2023-06-14T11:40:45;3.10;;;2.40;;
7076;SDS011;3579;48.956;9.154;2023-06-14T11:43:11;2.50;;;2.30;;
7076;SDS011;3579;48.956;9.154;2023-06-14T11:45:38;3.00;;;2.50;;
7076;SDS011;3579;48.956;9.154;2023-06-14T11:48:06;3.93;;;2.70;;
7076;SDS011;3579;48.956;9.154;2023-06-14T11:50:32;2.40;;;2.20;;
7076;SDS011;3579;48.956;9.154;2023-06-14T11:52:59;2.47;;;2.27;;
7076;SDS011;3579;48.956;9.154;2023-06-14T11:55:35;2.77;;;2.57;;
7076;SDS011;3579;48.956;9.154;2023-06-14T11:58:04;3.10;;;2.73;;
7076;SDS011;3579;48.956;9.154;2023-06-14T12:00:31;2.60;;;2.40;;
7076;SDS011;3579;48.956;9.154;2023-06-14T12:02:57;2.93;;;2.60;;
7076;SDS011;3579;48.956;9.154;2023-06-14T12:05:24;2.40;;;2.20;;
7076;SDS011;3579;48.956;9.154;2023-06-14T12:08:01;2.70;;;2.37;;
7076;SDS011;3579;48.956;9.154;2023-06-14T12:10:29;3.07;;;2.77;;
7076;SDS011;3579;48.956;9.154;2023-06-14T12:12:58;3.23;;;2.67;;
7076;SDS011;3579;48.956;9.154;2023-06-14T12:15:27;2.60;;;2.40;;
7076;SDS011;3579;48.956;9.154;2023-06-14T12:17:54;2.63;;;2.40;;
7076;SDS011;3579;48.956;9.154;2023-06-14T12:20:21;2.97;;;2.67;;
7076;SDS011;3579;48.956;9.154;2023-06-14T12:25:29;2.60;;;2.40;;
7076;SDS011;3579;48.956;9.154;2023-06-14T12:28:04;4.53;;;2.50;;
7076;SDS011;3579;48.956;9.154;2023-06-14T12:30:32;4.17;;;2.53;;
7076;SDS011;3579;48.956;9.154;2023-06-14T12:32:59;3.20;;;2.47;;
7076;SDS011;3579;48.956;9.154;2023-06-14T12:35:25;3.10;;;2.70;;
7076;SDS011;3579;48.956;9.154;2023-06-14T12:37:51;2.97;;;2.67;;
7076;SDS011;3579;48.956;9.154;2023-06-14T12:40:17;2.40;;;2.20;;
7076;SDS011;3579;48.956;9.154;2023-06-14T12:42:44;2.90;;;2.70;;
7076;SDS011;3579;48.956;9.154;2023-06-14T12:45:12;2.50;;;2.30;;
7076;SDS011;3579;48.956;9.154;2023-06-14T12:47:39;3.10;;;2.63;;
7076;SDS011;3579;48.956;9.154;2023-06-14T12:50:05;5.07;;;3.00;;
7076;SDS011;3579;48.956;9.154;2023-06-14T12:52:32;4.27;;;2.63;;
7076;SDS011;3579;48.956;9.154;2023-06-14T12:55:02;2.73;;;2.50;;
7076;SDS011;3579;48.956;9.154;2023-06-14T12:57:29;3.10;;;2.67;;
7076;SDS011;3579;48.956;9.154;2023-06-14T12:59:55;2.87;;;2.60;;
7076;SDS011;3579;48.956;9.154;2023-06-14T13:02:21;2.97;;;2.73;;
7076;SDS011;3579;48.956;9.154;2023-06-14T13:04:49;2.97;;;2.67;;
7076;SDS011;3579;48.956;9.154;2023-06-14T13:07:16;3.33;;;2.63;;
7076;SDS011;3579;48.956;9.154;2023-06-14T13:09:42;3.77;;;2.63;;
7076;SDS011;3579;48.956;9.154;2023-06-14T13:12:12;2.80;;;2.60;;
7076;SDS011;3579;48.956;9.154;2023-06-14T13:14:38;2.80;;;2.60;;
7076;SDS011;3579;48.956;9.154;2023-06-14T13:17:07;2.73;;;2.40;;
7076;SDS011;3579;48.956;9.154;2023-06-14T13:19:34;2.50;;;2.30;;
7076;SDS011;3579;48.956;9.154;2023-06-14T13:22:00;2.63;;;2.43;;
7076;SDS011;3579;48.956;9.154;2023-06-14T13:24:26;2.90;;;2.43;;
7076;SDS011;3579;48.956;9.154;2023-06-14T13:26:53;2.57;;;2.37;;
7076;SDS011;3579;48.956;9.154;2023-06-14T13:29:20;2.77;;;2.57;;
7076;SDS011;3579;48.956;9.154;2023-06-14T13:31:46;3.30;;;2.70;;
7076;SDS011;3579;48.956;9.154;2023-06-14T13:34:12;2.60;;;2.40;;
7076;SDS011;3579;48.956;9.154;2023-06-14T13:36:38;3.23;;;2.93;;
7076;SDS011;3579;48.956;9.154;2023-06-14T13:39:04;2.70;;;2.50;;
7076;SDS011;3579;48.956;9.154;2023-06-14T13:41:31;2.80;;;2.43;;
7076;SDS011;3579;48.956;9.154;2023-06-14T13:43:59;3.27;;;2.97;;
7076;SDS011;3579;48.956;9.154;2023-06-14T13:46:26;3.63;;;2.60;;
7076;SDS011;3579;48.956;9.154;2023-06-14T13:48:52;2.73;;;2.53;;
7076;SDS011;3579;48.956;9.154;2023-06-14T13:51:18;2.93;;;2.40;;
7076;SDS011;3579;48.956;9.154;2023-06-14T13:53:48;2.97;;;2.63;;
7076;SDS011;3579;48.956;9.154;2023-06-14T13:56:15;2.63;;;2.33;;
7076;SDS011;3579;48.956;9.154;2023-06-14T13:58:41;3.30;;;3.00;;
7076;SDS011;3579;48.956;9.154;2023-06-14T14:01:07;2.90;;;2.60;;
7076;SDS011;3579;48.956;9.154;2023-06-14T14:03:34;4.00;;;2.60;;
7076;SDS011;3579;48.956;9.154;2023-06-14T14:06:01;3.53;;;2.80;;
7076;SDS011;3579;48.956;9.154;2023-06-14T14:08:27;2.70;;;2.50;;
7076;SDS011;3579;48.956;9.154;2023-06-14T14:10:53;2.90;;;2.30;;
7076;SDS011;3579;48.956;9.154;2023-06-14T14:13:21;2.87;;;2.60;;
7076;SDS011;3579;48.956;9.154;2023-06-14T14:15:47;2.93;;;2.60;;
7076;SDS011;3579;48.956;9.154;2023-06-14T14:18:16;2.73;;;2.53;;
7076;SDS011;3579;48.956;9.154;2023-06-14T14:20:42;2.80;;;2.60;;
7076;SDS011;3579;48.956;9.154;2023-06-14T14:23:09;3.10;;;2.40;;
7076;SDS011;3579;48.956;9.154;2023-06-14T14:25:35;2.90;;;2.37;;
7076;SDS011;3579;48.956;9.154;2023-06-14T14:28:01;2.40;;;2.13;;
7076;SDS011;3579;48.956;9.154;2023-06-14T14:30:27;3.00;;;2.70;;
7076;SDS011;3579;48.956;9.154;2023-06-14T14:32:53;2.93;;;2.43;;
7076;SDS011;3579;48.956;9.154;2023-06-14T14:35:19;3.00;;;2.40;;
7076;SDS011;3579;48.956;9.154;2023-06-14T14:37:45;3.03;;;2.40;;
7076;SDS011;3579;48.956;9.154;2023-06-14T14:40:11;3.50;;;2.50;;
7076;SDS011;3579;48.956;9.154;2023-06-14T14:42:38;2.73;;;2.47;;
7076;SDS011;3579;48.956;9.154;2023-06-14T14:45:05;3.00;;;2.57;;
7076;SDS011;3579;48.956;9.154;2023-06-14T14:47:32;3.00;;;2.70;;
7076;SDS011;3579;48.956;9.154;2023-06-14T14:49:58;3.53;;;2.50;;
7076;SDS011;3579;48.956;9.154;2023-06-14T14:52:24;2.70;;;2.50;;
7076;SDS011;3579;48.956;9.154;2023-06-14T14:54:52;2.60;;;2.40;;
7076;SDS011;3579;48.956;9.154;2023-06-14T14:57:19;2.60;;;2.40;;
7076;SDS011;3579;48.956;9.154;2023-06-14T14:59:45;2.73;;;2.43;;
7076;SDS011;3579;48.956;9.154;2023-06-14T15:02:11;2.80;;;2.60;;
7076;SDS011;3579;48.956;9.154;2023-06-14T15:04:37;4.40;;;2.53;;
7076;SDS011;3579;48.956;9.154;2023-06-14T15:07:03;3.70;;;3.03;;
7076;SDS011;3579;48.956;9.154;2023-06-14T15:09:29;2.80;;;2.50;;
7076;SDS011;3579;48.956;9.154;2023-06-14T15:11:55;2.50;;;2.30;;
7076;SDS011;3579;48.956;9.154;2023-06-14T15:14:21;2.73;;;2.50;;
7076;SDS011;3579;48.956;9.154;2023-06-14T15:16:47;3.43;;;2.60;;
7076;SDS011;3579;48.956;9.154;2023-06-14T15:19:13;2.87;;;2.60;;
7076;SDS011;3579;48.956;9.154;2023-06-14T15:21:39;2.63;;;2.43;;
7076;SDS011;3579;48.956;9.154;2023-06-14T15:24:05;2.70;;;2.50;;
7076;SDS011;3579;48.956;9.154;2023-06-14T15:26:33;2.83;;;2.53;;
7076;SDS011;3579;48.956;9.154;2023-06-14T15:28:59;2.50;;;2.30;;
7076;SDS011;3579;48.956;9.154;2023-06-14T15:31:25;2.40;;;2.20;;
7076;SDS011;3579;48.956;9.154;2023-06-14T15:33:53;2.80;;;2.50;;
7076;SDS011;3579;48.956;9.154;2023-06-14T15:36:19;2.50;;;2.30;;
7076;SDS011;3579;48.956;9.154;2023-06-14T15:38:45;3.33;;;2.37;;